sensor_id;sensor_type;location;lat;lon;timestamp;temperature;humidity
22173;DHT22;11252;50.596;17.648;2023-03-23T00:01:01;10.60;92.20
22173;DHT22;11252;50.596;17.648;2023-03-23T00:03:28;10.60;92.20
22173;DHT22;11252;50.596;17.648;2023-03-23T00:06:01;10.60;92.20
22173;DHT22;11252;50.596;17.648;2023-03-23T00:08:37;10.60;92.20
22173;DHT22;11252;50.596;17.648;2023-03-23T00:11:15;10.60;92.20
22173;DHT22;11252;50.596;17.648;2023-03-23T00:13:46;10.50;92.20
22173;DHT22;11252;50.596;17.648;2023-03-23T00:16:13;10.50;92.20
22173;DHT22;11252;50.596;17.648;2023-03-23T00:18:55;10.50;92.20
22173;DHT22;11252;50.596;17.648;2023-03-23T00:21:22;10.50;92.20
22173;DHT22;11252;50.596;17.648;2023-03-23T00:24:00;10.50;92.20
22173;DHT22;11252;50.596;17.648;2023-03-23T00:26:26;10.40;92.20
22173;DHT22;11252;50.596;17.648;2023-03-23T00:28:55;10.40;92.20
22173;DHT22;11252;50.596;17.648;2023-03-23T00:31:22;10.40;92.20
22173;DHT22;11252;50.596;17.648;2023-03-23T00:33:48;10.50;92.20
22173;DHT22;11252;50.596;17.648;2023-03-23T00:36:14;10.40;92.20
22173;DHT22;11252;50.596;17.648;2023-03-23T00:38:41;10.50;92.20
22173;DHT22;11252;50.596;17.648;2023-03-23T00:41:10;10.50;92.20
22173;DHT22;11252;50.596;17.648;2023-03-23T00:43:37;10.50;92.20
22173;DHT22;11252;50.596;17.648;2023-03-23T00:46:05;10.50;92.20
22173;DHT22;11252;50.596;17.648;2023-03-23T00:48:36;10.60;92.20
22173;DHT22;11252;50.596;17.648;2023-03-23T00:51:07;10.60;92.20
22173;DHT22;11252;50.596;17.648;2023-03-23T00:53:36;10.60;92.20
22173;DHT22;11252;50.596;17.648;2023-03-23T00:56:02;10.50;92.20
22173;DHT22;11252;50.596;17.648;2023-03-23T00:58:29;10.50;92.20
22173;DHT22;11252;50.596;17.648;2023-03-23T01:00:55;10.50;92.20
22173;DHT22;11252;50.596;17.648;2023-03-23T01:03:22;10.50;92.20
22173;DHT22;11252;50.596;17.648;2023-03-23T01:05:52;10.50;92.20
22173;DHT22;11252;50.596;17.648;2023-03-23T01:08:19;10.50;92.20
22173;DHT22;11252;50.596;17.648;2023-03-23T01:10:45;10.50;92.20
22173;DHT22;11252;50.596;17.648;2023-03-23T01:13:12;10.50;92.20
22173;DHT22;11252;50.596;17.648;2023-03-23T01:15:39;10.50;92.20
22173;DHT22;11252;50.596;17.648;2023-03-23T01:18:05;10.40;92.20
22173;DHT22;11252;50.596;17.648;2023-03-23T01:20:32;10.30;92.20
22173;DHT22;11252;50.596;17.648;2023-03-23T01:22:59;10.30;92.20
22173;DHT22;11252;50.596;17.648;2023-03-23T01:25:34;10.30;92.20
22173;DHT22;11252;50.596;17.648;2023-03-23T01:28:01;10.30;92.20
22173;DHT22;11252;50.596;17.648;2023-03-23T01:30:27;10.20;92.20
22173;DHT22;11252;50.596;17.648;2023-03-23T01:32:54;10.20;92.20
22173;DHT22;11252;50.596;17.648;2023-03-23T01:35:23;10.20;92.20
22173;DHT22;11252;50.596;17.648;2023-03-23T01:37:50;10.20;92.20
22173;DHT22;11252;50.596;17.648;2023-03-23T01:40:16;10.10;92.20
22173;DHT22;11252;50.596;17.648;2023-03-23T01:42:42;10.10;92.20
22173;DHT22;11252;50.596;17.648;2023-03-23T01:45:22;10.10;92.20
22173;DHT22;11252;50.596;17.648;2023-03-23T01:47:54;10.10;92.20
22173;DHT22;11252;50.596;17.648;2023-03-23T01:50:22;10.00;92.20
22173;DHT22;11252;50.596;17.648;2023-03-23T01:52:51;10.00;92.20
22173;DHT22;11252;50.596;17.648;2023-03-23T01:55:20;9.90;92.20
22173;DHT22;11252;50.596;17.648;2023-03-23T01:57:47;9.90;92.20
22173;DHT22;11252;50.596;17.648;2023-03-23T02:00:14;9.80;92.20
22173;DHT22;11252;50.596;17.648;2023-03-23T02:02:43;9.80;92.20
22173;DHT22;11252;50.596;17.648;2023-03-23T02:05:25;9.70;92.20
22173;DHT22;11252;50.596;17.648;2023-03-23T02:07:53;9.60;92.20
22173;DHT22;11252;50.596;17.648;2023-03-23T02:10:19;9.60;92.20
22173;DHT22;11252;50.596;17.648;2023-03-23T02:12:46;9.50;92.20
22173;DHT22;11252;50.596;17.648;2023-03-23T02:15:12;9.50;92.20
22173;DHT22;11252;50.596;17.648;2023-03-23T02:20:48;9.40;92.20
22173;DHT22;11252;50.596;17.648;2023-03-23T02:34:29;9.50;92.20
22173;DHT22;11252;50.596;17.648;2023-03-23T02:36:58;9.60;92.20
22173;DHT22;11252;50.596;17.648;2023-03-23T02:39:30;9.60;92.20
22173;DHT22;11252;50.596;17.648;2023-03-23T02:42:05;9.70;92.20
22173;DHT22;11252;50.596;17.648;2023-03-23T02:44:34;9.70;92.20
22173;DHT22;11252;50.596;17.648;2023-03-23T02:47:04;9.70;92.20
22173;DHT22;11252;50.596;17.648;2023-03-23T02:49:35;9.60;92.20
22173;DHT22;11252;50.596;17.648;2023-03-23T02:52:07;9.70;92.20
22173;DHT22;11252;50.596;17.648;2023-03-23T02:54:34;9.70;92.20
22173;DHT22;11252;50.596;17.648;2023-03-23T02:57:01;9.70;92.20
22173;DHT22;11252;50.596;17.648;2023-03-23T02:59:28;9.80;92.20
22173;DHT22;11252;50.596;17.648;2023-03-23T03:02:18;9.70;92.20
22173;DHT22;11252;50.596;17.648;2023-03-23T03:08:01;9.70;92.20
22173;DHT22;11252;50.596;17.648;2023-03-23T03:10:35;9.60;92.20
22173;DHT22;11252;50.596;17.648;2023-03-23T03:18:16;9.40;92.20
22173;DHT22;11252;50.596;17.648;2023-03-23T03:20:48;9.40;92.20
22173;DHT22;11252;50.596;17.648;2023-03-23T03:23:16;9.30;92.20
22173;DHT22;11252;50.596;17.648;2023-03-23T03:25:43;9.30;92.20
22173;DHT22;11252;50.596;17.648;2023-03-23T03:28:20;9.40;92.20
22173;DHT22;11252;50.596;17.648;2023-03-23T03:30:56;9.40;92.20
22173;DHT22;11252;50.596;17.648;2023-03-23T03:33:25;9.30;92.20
22173;DHT22;11252;50.596;17.648;2023-03-23T03:35:57;9.20;92.20
22173;DHT22;11252;50.596;17.648;2023-03-23T03:38:26;9.10;92.20
22173;DHT22;11252;50.596;17.648;2023-03-23T03:40:52;9.10;92.20
22173;DHT22;11252;50.596;17.648;2023-03-23T03:43:19;9.00;92.20
22173;DHT22;11252;50.596;17.648;2023-03-23T03:45:45;8.90;92.20
22173;DHT22;11252;50.596;17.648;2023-03-23T03:48:11;8.90;92.20
22173;DHT22;11252;50.596;17.648;2023-03-23T03:50:37;8.90;92.20
22173;DHT22;11252;50.596;17.648;2023-03-23T03:53:04;8.90;92.20
22173;DHT22;11252;50.596;17.648;2023-03-23T03:55:32;8.80;92.20
22173;DHT22;11252;50.596;17.648;2023-03-23T03:58:02;8.80;92.20
22173;DHT22;11252;50.596;17.648;2023-03-23T04:00:30;8.80;92.20
22173;DHT22;11252;50.596;17.648;2023-03-23T04:02:56;8.70;92.20
22173;DHT22;11252;50.596;17.648;2023-03-23T04:05:26;8.70;92.20
22173;DHT22;11252;50.596;17.648;2023-03-23T04:07:54;8.70;92.20
22173;DHT22;11252;50.596;17.648;2023-03-23T04:10:27;8.60;92.20
22173;DHT22;11252;50.596;17.648;2023-03-23T04:12:56;8.60;92.20
22173;DHT22;11252;50.596;17.648;2023-03-23T04:15:22;8.70;92.20
22173;DHT22;11252;50.596;17.648;2023-03-23T04:17:49;8.70;92.20
22173;DHT22;11252;50.596;17.648;2023-03-23T04:20:16;8.70;92.20
22173;DHT22;11252;50.596;17.648;2023-03-23T04:22:47;8.80;92.20
22173;DHT22;11252;50.596;17.648;2023-03-23T04:25:16;8.70;92.20
22173;DHT22;11252;50.596;17.648;2023-03-23T04:27:47;8.80;92.20
22173;DHT22;11252;50.596;17.648;2023-03-23T04:30:20;8.80;92.20
22173;DHT22;11252;50.596;17.648;2023-03-23T04:32:49;8.80;92.20
22173;DHT22;11252;50.596;17.648;2023-03-23T04:35:22;8.80;92.20
22173;DHT22;11252;50.596;17.648;2023-03-23T04:37:50;8.80;92.20
22173;DHT22;11252;50.596;17.648;2023-03-23T04:40:17;8.80;92.20
22173;DHT22;11252;50.596;17.648;2023-03-23T04:42:45;8.80;92.20
22173;DHT22;11252;50.596;17.648;2023-03-23T04:45:14;8.80;92.20
22173;DHT22;11252;50.596;17.648;2023-03-23T04:47:40;8.80;92.20
22173;DHT22;11252;50.596;17.648;2023-03-23T04:50:09;8.90;92.20
22173;DHT22;11252;50.596;17.648;2023-03-23T04:52:37;8.90;92.20
22173;DHT22;11252;50.596;17.648;2023-03-23T04:55:07;9.00;92.20
22173;DHT22;11252;50.596;17.648;2023-03-23T04:57:35;8.90;92.20
22173;DHT22;11252;50.596;17.648;2023-03-23T05:00:02;8.80;92.20
22173;DHT22;11252;50.596;17.648;2023-03-23T05:02:40;8.80;92.20
22173;DHT22;11252;50.596;17.648;2023-03-23T05:05:07;8.90;92.20
22173;DHT22;11252;50.596;17.648;2023-03-23T05:07:34;8.80;92.20
22173;DHT22;11252;50.596;17.648;2023-03-23T05:10:00;8.90;92.20
22173;DHT22;11252;50.596;17.648;2023-03-23T05:12:26;8.80;92.20
22173;DHT22;11252;50.596;17.648;2023-03-23T05:14:52;8.80;92.20
22173;DHT22;11252;50.596;17.648;2023-03-23T05:17:19;8.80;92.20
22173;DHT22;11252;50.596;17.648;2023-03-23T05:19:46;8.90;92.20
22173;DHT22;11252;50.596;17.648;2023-03-23T05:22:16;8.90;92.20
22173;DHT22;11252;50.596;17.648;2023-03-23T05:24:42;8.90;92.20
22173;DHT22;11252;50.596;17.648;2023-03-23T05:27:09;8.90;92.20
22173;DHT22;11252;50.596;17.648;2023-03-23T05:29:36;9.00;92.20
22173;DHT22;11252;50.596;17.648;2023-03-23T05:32:04;9.00;92.20
22173;DHT22;11252;50.596;17.648;2023-03-23T05:34:31;9.00;92.20
22173;DHT22;11252;50.596;17.648;2023-03-23T05:37:02;9.00;92.20
22173;DHT22;11252;50.596;17.648;2023-03-23T05:39:32;9.10;92.20
22173;DHT22;11252;50.596;17.648;2023-03-23T05:41:58;9.20;92.20
22173;DHT22;11252;50.596;17.648;2023-03-23T05:44:25;9.20;92.20
22173;DHT22;11252;50.596;17.648;2023-03-23T05:46:52;9.30;92.20
22173;DHT22;11252;50.596;17.648;2023-03-23T05:49:18;9.30;92.20
22173;DHT22;11252;50.596;17.648;2023-03-23T05:51:45;9.40;92.20
22173;DHT22;11252;50.596;17.648;2023-03-23T05:54:15;9.40;92.20
22173;DHT22;11252;50.596;17.648;2023-03-23T05:56:42;9.50;92.20
22173;DHT22;11252;50.596;17.648;2023-03-23T05:59:09;9.50;92.20
22173;DHT22;11252;50.596;17.648;2023-03-23T06:01:37;9.60;92.20
22173;DHT22;11252;50.596;17.648;2023-03-23T06:04:03;9.60;92.20
22173;DHT22;11252;50.596;17.648;2023-03-23T06:06:30;9.60;92.20
22173;DHT22;11252;50.596;17.648;2023-03-23T06:08:58;9.70;92.20
22173;DHT22;11252;50.596;17.648;2023-03-23T06:11:25;9.70;92.20
22173;DHT22;11252;50.596;17.648;2023-03-23T06:13:52;9.80;92.20
22173;DHT22;11252;50.596;17.648;2023-03-23T06:16:19;9.80;92.20
22173;DHT22;11252;50.596;17.648;2023-03-23T06:18:46;9.90;92.20
22173;DHT22;11252;50.596;17.648;2023-03-23T06:21:12;9.90;92.20
22173;DHT22;11252;50.596;17.648;2023-03-23T06:23:39;10.00;92.20
22173;DHT22;11252;50.596;17.648;2023-03-23T06:26:11;10.10;92.20
22173;DHT22;11252;50.596;17.648;2023-03-23T06:28:38;10.20;92.20
22173;DHT22;11252;50.596;17.648;2023-03-23T06:31:05;10.30;92.20
22173;DHT22;11252;50.596;17.648;2023-03-23T06:33:36;10.30;92.20
22173;DHT22;11252;50.596;17.648;2023-03-23T06:36:02;10.40;92.20
22173;DHT22;11252;50.596;17.648;2023-03-23T06:38:28;10.40;92.20
22173;DHT22;11252;50.596;17.648;2023-03-23T06:40:55;10.40;92.20
22173;DHT22;11252;50.596;17.648;2023-03-23T06:43:23;10.40;92.20
22173;DHT22;11252;50.596;17.648;2023-03-23T06:45:50;10.40;92.20
22173;DHT22;11252;50.596;17.648;2023-03-23T06:48:17;10.50;92.20
22173;DHT22;11252;50.596;17.648;2023-03-23T06:50:44;10.60;92.20
22173;DHT22;11252;50.596;17.648;2023-03-23T06:53:11;10.70;92.20
22173;DHT22;11252;50.596;17.648;2023-03-23T06:55:38;10.80;92.20
22173;DHT22;11252;50.596;17.648;2023-03-23T06:58:08;10.90;92.20
22173;DHT22;11252;50.596;17.648;2023-03-23T07:00:35;11.10;92.20
22173;DHT22;11252;50.596;17.648;2023-03-23T07:03:01;11.30;92.20
22173;DHT22;11252;50.596;17.648;2023-03-23T07:05:27;11.50;92.20
22173;DHT22;11252;50.596;17.648;2023-03-23T07:07:53;11.70;92.20
22173;DHT22;11252;50.596;17.648;2023-03-23T07:10:20;12.00;92.20
22173;DHT22;11252;50.596;17.648;2023-03-23T07:12:46;12.10;92.20
22173;DHT22;11252;50.596;17.648;2023-03-23T07:15:12;12.30;92.20
22173;DHT22;11252;50.596;17.648;2023-03-23T07:17:39;12.50;92.20
22173;DHT22;11252;50.596;17.648;2023-03-23T07:20:07;12.80;92.20
22173;DHT22;11252;50.596;17.648;2023-03-23T07:22:33;13.00;92.20
22173;DHT22;11252;50.596;17.648;2023-03-23T07:24:59;13.30;91.60
22173;DHT22;11252;50.596;17.648;2023-03-23T07:27:25;13.40;91.30
22173;DHT22;11252;50.596;17.648;2023-03-23T07:29:52;13.60;90.70
22173;DHT22;11252;50.596;17.648;2023-03-23T07:32:18;13.70;89.60
22173;DHT22;11252;50.596;17.648;2023-03-23T07:34:44;13.70;89.50
22173;DHT22;11252;50.596;17.648;2023-03-23T07:37:10;13.70;89.40
22173;DHT22;11252;50.596;17.648;2023-03-23T07:39:36;13.70;90.00
22173;DHT22;11252;50.596;17.648;2023-03-23T07:42:03;13.70;90.60
22173;DHT22;11252;50.596;17.648;2023-03-23T07:44:29;13.80;90.20
22173;DHT22;11252;50.596;17.648;2023-03-23T07:46:56;13.90;90.20
22173;DHT22;11252;50.596;17.648;2023-03-23T07:49:23;14.20;90.30
22173;DHT22;11252;50.596;17.648;2023-03-23T07:51:49;14.60;88.60
22173;DHT22;11252;50.596;17.648;2023-03-23T07:54:15;14.80;87.70
22173;DHT22;11252;50.596;17.648;2023-03-23T07:56:43;14.90;87.10
22173;DHT22;11252;50.596;17.648;2023-03-23T07:59:11;15.10;87.10
22173;DHT22;11252;50.596;17.648;2023-03-23T08:01:38;15.40;86.30
22173;DHT22;11252;50.596;17.648;2023-03-23T08:04:05;15.40;85.90
22173;DHT22;11252;50.596;17.648;2023-03-23T08:06:35;15.60;85.10
22173;DHT22;11252;50.596;17.648;2023-03-23T08:09:02;15.90;84.20
22173;DHT22;11252;50.596;17.648;2023-03-23T08:11:36;16.20;82.00
22173;DHT22;11252;50.596;17.648;2023-03-23T08:14:04;16.40;82.00
22173;DHT22;11252;50.596;17.648;2023-03-23T08:16:31;16.60;81.10
22173;DHT22;11252;50.596;17.648;2023-03-23T08:18:58;16.70;80.50
22173;DHT22;11252;50.596;17.648;2023-03-23T08:21:24;17.00;80.70
22173;DHT22;11252;50.596;17.648;2023-03-23T08:23:52;17.30;78.70
22173;DHT22;11252;50.596;17.648;2023-03-23T08:26:18;17.60;79.10
22173;DHT22;11252;50.596;17.648;2023-03-23T08:28:44;17.80;77.90
22173;DHT22;11252;50.596;17.648;2023-03-23T08:31:13;17.60;77.30
22173;DHT22;11252;50.596;17.648;2023-03-23T08:33:40;17.50;78.30
22173;DHT22;11252;50.596;17.648;2023-03-23T08:36:07;17.60;77.90
22173;DHT22;11252;50.596;17.648;2023-03-23T08:38:34;17.70;78.10
22173;DHT22;11252;50.596;17.648;2023-03-23T08:41:04;17.80;77.50
22173;DHT22;11252;50.596;17.648;2023-03-23T08:43:35;17.70;77.20
22173;DHT22;11252;50.596;17.648;2023-03-23T08:46:01;18.10;78.20
22173;DHT22;11252;50.596;17.648;2023-03-23T08:48:32;18.40;76.80
22173;DHT22;11252;50.596;17.648;2023-03-23T08:51:02;18.50;76.60
22173;DHT22;11252;50.596;17.648;2023-03-23T08:53:28;18.40;76.40
22173;DHT22;11252;50.596;17.648;2023-03-23T08:56:05;18.40;75.70
22173;DHT22;11252;50.596;17.648;2023-03-23T08:58:32;18.60;77.00
22173;DHT22;11252;50.596;17.648;2023-03-23T09:01:03;18.60;75.70
22173;DHT22;11252;50.596;17.648;2023-03-23T09:03:30;18.70;76.10
22173;DHT22;11252;50.596;17.648;2023-03-23T09:06:04;18.90;75.40
22173;DHT22;11252;50.596;17.648;2023-03-23T09:08:31;19.10;74.80
22173;DHT22;11252;50.596;17.648;2023-03-23T09:11:10;19.00;74.90
22173;DHT22;11252;50.596;17.648;2023-03-23T09:13:37;18.60;75.40
22173;DHT22;11252;50.596;17.648;2023-03-23T09:16:05;18.30;75.00
22173;DHT22;11252;50.596;17.648;2023-03-23T09:18:31;18.00;76.00
22173;DHT22;11252;50.596;17.648;2023-03-23T09:21:01;17.90;76.90
22173;DHT22;11252;50.596;17.648;2023-03-23T09:23:28;17.90;77.50
22173;DHT22;11252;50.596;17.648;2023-03-23T09:25:54;18.20;77.70
22173;DHT22;11252;50.596;17.648;2023-03-23T09:28:21;18.40;76.60
22173;DHT22;11252;50.596;17.648;2023-03-23T09:30:47;18.40;73.20
22173;DHT22;11252;50.596;17.648;2023-03-23T09:33:14;18.30;73.30
22173;DHT22;11252;50.596;17.648;2023-03-23T09:35:40;18.30;72.00
22173;DHT22;11252;50.596;17.648;2023-03-23T09:38:09;18.10;72.50
22173;DHT22;11252;50.596;17.648;2023-03-23T09:40:56;18.00;72.90
22173;DHT22;11252;50.596;17.648;2023-03-23T09:44:10;17.90;72.60
22173;DHT22;11252;50.596;17.648;2023-03-23T09:46:40;17.70;73.40
22173;DHT22;11252;50.596;17.648;2023-03-23T09:49:26;17.60;74.30
22173;DHT22;11252;50.596;17.648;2023-03-23T09:56:53;17.90;75.30
22173;DHT22;11252;50.596;17.648;2023-03-23T09:59:31;18.00;75.00
22173;DHT22;11252;50.596;17.648;2023-03-23T10:02:21;18.10;74.20
22173;DHT22;11252;50.596;17.648;2023-03-23T10:04:55;18.00;74.20
22173;DHT22;11252;50.596;17.648;2023-03-23T10:07:24;18.10;74.70
22173;DHT22;11252;50.596;17.648;2023-03-23T10:09:57;18.30;75.80
22173;DHT22;11252;50.596;17.648;2023-03-23T10:12:46;18.60;74.70
22173;DHT22;11252;50.596;17.648;2023-03-23T10:20:54;18.30;73.50
22173;DHT22;11252;50.596;17.648;2023-03-23T10:28:44;18.10;75.00
22173;DHT22;11252;50.596;17.648;2023-03-23T10:31:20;18.00;74.30
22173;DHT22;11252;50.596;17.648;2023-03-23T10:33:53;18.00;75.50
22173;DHT22;11252;50.596;17.648;2023-03-23T10:36:40;18.10;74.60
22173;DHT22;11252;50.596;17.648;2023-03-23T10:39:15;18.20;73.50
22173;DHT22;11252;50.596;17.648;2023-03-23T10:41:43;18.10;73.90
22173;DHT22;11252;50.596;17.648;2023-03-23T10:44:22;18.10;74.90
22173;DHT22;11252;50.596;17.648;2023-03-23T10:47:05;18.20;74.60
22173;DHT22;11252;50.596;17.648;2023-03-23T10:49:38;18.20;74.90
22173;DHT22;11252;50.596;17.648;2023-03-23T10:52:27;18.30;74.90
22173;DHT22;11252;50.596;17.648;2023-03-23T10:55:07;18.40;73.60
22173;DHT22;11252;50.596;17.648;2023-03-23T10:57:36;18.60;72.70
22173;DHT22;11252;50.596;17.648;2023-03-23T11:00:07;18.60;72.40
22173;DHT22;11252;50.596;17.648;2023-03-23T11:02:46;18.70;72.60
22173;DHT22;11252;50.596;17.648;2023-03-23T11:05:19;18.80;72.90
22173;DHT22;11252;50.596;17.648;2023-03-23T11:07:55;18.90;71.90
22173;DHT22;11252;50.596;17.648;2023-03-23T11:10:25;18.80;71.60
22173;DHT22;11252;50.596;17.648;2023-03-23T11:12:56;18.70;72.30
22173;DHT22;11252;50.596;17.648;2023-03-23T11:15:39;18.80;72.00
22173;DHT22;11252;50.596;17.648;2023-03-23T11:18:10;19.10;73.00
22173;DHT22;11252;50.596;17.648;2023-03-23T11:20:43;20.70;69.80
22173;DHT22;11252;50.596;17.648;2023-03-23T11:23:31;22.00;66.00
22173;DHT22;11252;50.596;17.648;2023-03-23T11:28:57;21.20;67.10
22173;DHT22;11252;50.596;17.648;2023-03-23T11:31:34;20.60;67.50
22173;DHT22;11252;50.596;17.648;2023-03-23T11:34:13;20.20;68.80
22173;DHT22;11252;50.596;17.648;2023-03-23T11:36:46;19.60;69.30
22173;DHT22;11252;50.596;17.648;2023-03-23T11:39:53;19.40;71.50
22173;DHT22;11252;50.596;17.648;2023-03-23T11:42:24;19.30;71.70
22173;DHT22;11252;50.596;17.648;2023-03-23T11:45:22;19.30;72.40
22173;DHT22;11252;50.596;17.648;2023-03-23T11:47:56;19.30;71.80
22173;DHT22;11252;50.596;17.648;2023-03-23T11:58:29;19.00;72.10
22173;DHT22;11252;50.596;17.648;2023-03-23T12:01:05;18.90;70.80
22173;DHT22;11252;50.596;17.648;2023-03-23T12:06:40;18.90;71.90
22173;DHT22;11252;50.596;17.648;2023-03-23T12:09:28;19.00;73.70
22173;DHT22;11252;50.596;17.648;2023-03-23T12:12:08;19.10;72.10
22173;DHT22;11252;50.596;17.648;2023-03-23T12:25:49;18.80;73.40
22173;DHT22;11252;50.596;17.648;2023-03-23T12:33:33;18.60;73.80
22173;DHT22;11252;50.596;17.648;2023-03-23T12:49:38;18.40;74.70
22173;DHT22;11252;50.596;17.648;2023-03-23T12:52:21;18.50;74.30
22173;DHT22;11252;50.596;17.648;2023-03-23T12:55:05;18.50;74.80
22173;DHT22;11252;50.596;17.648;2023-03-23T12:58:02;18.50;74.20
22173;DHT22;11252;50.596;17.648;2023-03-23T13:03:32;18.50;74.70
22173;DHT22;11252;50.596;17.648;2023-03-23T13:06:07;18.40;74.60
22173;DHT22;11252;50.596;17.648;2023-03-23T13:08:39;18.40;74.60
22173;DHT22;11252;50.596;17.648;2023-03-23T13:11:25;18.30;75.40
22173;DHT22;11252;50.596;17.648;2023-03-23T13:16:42;18.20;75.60
22173;DHT22;11252;50.596;17.648;2023-03-23T13:19:30;18.20;76.90
22173;DHT22;11252;50.596;17.648;2023-03-23T13:22:04;18.10;76.30
22173;DHT22;11252;50.596;17.648;2023-03-23T13:24:34;18.20;76.00
22173;DHT22;11252;50.596;17.648;2023-03-23T13:27:02;18.10;77.10
22173;DHT22;11252;50.596;17.648;2023-03-23T13:29:30;18.10;76.10
22173;DHT22;11252;50.596;17.648;2023-03-23T13:32:17;18.10;76.30
22173;DHT22;11252;50.596;17.648;2023-03-23T13:34:46;18.10;76.60
22173;DHT22;11252;50.596;17.648;2023-03-23T13:42:51;18.30;76.30
22173;DHT22;11252;50.596;17.648;2023-03-23T13:47:47;18.40;76.50
22173;DHT22;11252;50.596;17.648;2023-03-23T14:03:12;18.30;74.20
22173;DHT22;11252;50.596;17.648;2023-03-23T14:05:42;18.20;74.70
22173;DHT22;11252;50.596;17.648;2023-03-23T14:16:24;17.90;75.70
22173;DHT22;11252;50.596;17.648;2023-03-23T14:18:59;17.90;75.90
22173;DHT22;11252;50.596;17.648;2023-03-23T14:21:37;17.80;77.40
22173;DHT22;11252;50.596;17.648;2023-03-23T14:24:15;17.70;78.30
22173;DHT22;11252;50.596;17.648;2023-03-23T14:26:42;17.60;78.50
22173;DHT22;11252;50.596;17.648;2023-03-23T14:29:12;17.50;78.10
22173;DHT22;11252;50.596;17.648;2023-03-23T14:31:40;17.50;78.30
22173;DHT22;11252;50.596;17.648;2023-03-23T14:34:19;17.40;78.80
22173;DHT22;11252;50.596;17.648;2023-03-23T14:36:46;17.30;79.50
22173;DHT22;11252;50.596;17.648;2023-03-23T14:39:24;17.30;80.10
22173;DHT22;11252;50.596;17.648;2023-03-23T14:41:53;17.40;80.30
22173;DHT22;11252;50.596;17.648;2023-03-23T14:44:41;17.20;81.00
22173;DHT22;11252;50.596;17.648;2023-03-23T14:47:34;17.20;81.00
22173;DHT22;11252;50.596;17.648;2023-03-23T14:50:05;17.20;81.90
22173;DHT22;11252;50.596;17.648;2023-03-23T14:52:37;17.20;82.90
22173;DHT22;11252;50.596;17.648;2023-03-23T14:57:41;17.10;81.10
22173;DHT22;11252;50.596;17.648;2023-03-23T15:00:30;17.10;81.40
22173;DHT22;11252;50.596;17.648;2023-03-23T15:02:59;17.10;80.90
22173;DHT22;11252;50.596;17.648;2023-03-23T15:05:37;17.10;80.70
22173;DHT22;11252;50.596;17.648;2023-03-23T15:08:11;17.00;81.20
22173;DHT22;11252;50.596;17.648;2023-03-23T15:10:39;17.00;80.90
22173;DHT22;11252;50.596;17.648;2023-03-23T15:13:08;17.10;80.00
22173;DHT22;11252;50.596;17.648;2023-03-23T15:15:36;17.30;78.80
22173;DHT22;11252;50.596;17.648;2023-03-23T15:18:03;17.50;78.10
22173;DHT22;11252;50.596;17.648;2023-03-23T15:20:31;17.50;78.60
22173;DHT22;11252;50.596;17.648;2023-03-23T15:23:15;17.50;77.90
22173;DHT22;11252;50.596;17.648;2023-03-23T15:25:49;17.50;78.50
22173;DHT22;11252;50.596;17.648;2023-03-23T15:28:20;17.40;78.50
22173;DHT22;11252;50.596;17.648;2023-03-23T15:31:00;17.50;78.70
22173;DHT22;11252;50.596;17.648;2023-03-23T15:33:33;17.40;79.90
22173;DHT22;11252;50.596;17.648;2023-03-23T15:35:59;17.60;78.00
22173;DHT22;11252;50.596;17.648;2023-03-23T15:38:33;17.50;79.60
22173;DHT22;11252;50.596;17.648;2023-03-23T15:41:06;17.30;79.40
22173;DHT22;11252;50.596;17.648;2023-03-23T15:43:49;17.30;78.10
22173;DHT22;11252;50.596;17.648;2023-03-23T15:46:21;17.20;79.50
22173;DHT22;11252;50.596;17.648;2023-03-23T15:51:30;17.20;77.40
22173;DHT22;11252;50.596;17.648;2023-03-23T15:53:57;17.30;77.80
22173;DHT22;11252;50.596;17.648;2023-03-23T15:56:24;17.20;79.30
22173;DHT22;11252;50.596;17.648;2023-03-23T15:58:51;17.10;79.70
22173;DHT22;11252;50.596;17.648;2023-03-23T16:01:25;17.10;80.20
22173;DHT22;11252;50.596;17.648;2023-03-23T16:03:56;17.00;80.60
22173;DHT22;11252;50.596;17.648;2023-03-23T16:06:27;16.90;80.90
22173;DHT22;11252;50.596;17.648;2023-03-23T16:08:54;16.80;81.00
22173;DHT22;11252;50.596;17.648;2023-03-23T16:11:25;16.80;81.40
22173;DHT22;11252;50.596;17.648;2023-03-23T16:13:53;16.70;81.60
22173;DHT22;11252;50.596;17.648;2023-03-23T16:16:27;16.70;81.20
22173;DHT22;11252;50.596;17.648;2023-03-23T16:18:56;16.70;81.50
22173;DHT22;11252;50.596;17.648;2023-03-23T16:21:23;16.70;81.60
22173;DHT22;11252;50.596;17.648;2023-03-23T16:23:51;16.70;81.70
22173;DHT22;11252;50.596;17.648;2023-03-23T16:26:18;16.60;82.10
22173;DHT22;11252;50.596;17.648;2023-03-23T16:28:45;16.60;82.20
22173;DHT22;11252;50.596;17.648;2023-03-23T16:31:13;16.50;82.20
22173;DHT22;11252;50.596;17.648;2023-03-23T16:33:40;16.40;81.60
22173;DHT22;11252;50.596;17.648;2023-03-23T16:36:13;16.50;81.60
22173;DHT22;11252;50.596;17.648;2023-03-23T16:38:44;16.60;81.20
22173;DHT22;11252;50.596;17.648;2023-03-23T16:41:16;16.50;81.70
22173;DHT22;11252;50.596;17.648;2023-03-23T16:43:44;16.50;81.40
22173;DHT22;11252;50.596;17.648;2023-03-23T16:46:12;16.50;81.50
22173;DHT22;11252;50.596;17.648;2023-03-23T16:48:40;16.30;82.40
22173;DHT22;11252;50.596;17.648;2023-03-23T16:51:08;16.20;83.00
22173;DHT22;11252;50.596;17.648;2023-03-23T16:53:36;16.10;83.20
22173;DHT22;11252;50.596;17.648;2023-03-23T16:56:04;16.00;82.90
22173;DHT22;11252;50.596;17.648;2023-03-23T16:58:31;16.00;83.20
22173;DHT22;11252;50.596;17.648;2023-03-23T17:01:00;15.90;83.60
22173;DHT22;11252;50.596;17.648;2023-03-23T17:03:28;15.80;83.90
22173;DHT22;11252;50.596;17.648;2023-03-23T17:05:58;15.80;84.40
22173;DHT22;11252;50.596;17.648;2023-03-23T17:08:27;15.70;84.40
22173;DHT22;11252;50.596;17.648;2023-03-23T17:10:55;15.70;84.80
22173;DHT22;11252;50.596;17.648;2023-03-23T17:13:22;15.60;85.20
22173;DHT22;11252;50.596;17.648;2023-03-23T17:15:53;15.50;85.60
22173;DHT22;11252;50.596;17.648;2023-03-23T17:18:23;15.50;86.00
22173;DHT22;11252;50.596;17.648;2023-03-23T17:20:57;15.40;86.40
22173;DHT22;11252;50.596;17.648;2023-03-23T17:23:24;15.40;86.50
22173;DHT22;11252;50.596;17.648;2023-03-23T17:25:52;15.40;86.70
22173;DHT22;11252;50.596;17.648;2023-03-23T17:28:20;15.50;86.20
22173;DHT22;11252;50.596;17.648;2023-03-23T17:30:47;15.50;85.80
22173;DHT22;11252;50.596;17.648;2023-03-23T17:33:15;15.50;85.60
22173;DHT22;11252;50.596;17.648;2023-03-23T17:35:45;15.50;85.30
22173;DHT22;11252;50.596;17.648;2023-03-23T17:38:13;15.50;85.20
22173;DHT22;11252;50.596;17.648;2023-03-23T17:40:43;15.60;85.50
22173;DHT22;11252;50.596;17.648;2023-03-23T17:43:11;15.60;85.10